sensor_id;sensor_type;location;lat;lon;timestamp;temperature;humidity
21522;DHT22;10922;45.572;10.002;2023-02-22T00:00:55;13.70;99.90
21522;DHT22;10922;45.572;10.002;2023-02-22T00:03:28;13.70;99.90
21522;DHT22;10922;45.572;10.002;2023-02-22T00:06:04;13.60;99.90
21522;DHT22;10922;45.572;10.002;2023-02-22T00:08:32;13.70;99.90
21522;DHT22;10922;45.572;10.002;2023-02-22T00:11:00;13.80;99.90
21522;DHT22;10922;45.572;10.002;2023-02-22T00:13:26;13.80;1.00
21522;DHT22;10922;45.572;10.002;2023-02-22T00:15:56;13.80;99.90
21522;DHT22;10922;45.572;10.002;2023-02-22T00:18:22;13.60;99.90
21522;DHT22;10922;45.572;10.002;2023-02-22T00:20:47;13.50;99.90
21522;DHT22;10922;45.572;10.002;2023-02-22T00:23:19;13.40;1.00
21522;DHT22;10922;45.572;10.002;2023-02-22T00:25:47;13.60;1.00
21522;DHT22;10922;45.572;10.002;2023-02-22T00:28:13;13.50;99.90
21522;DHT22;10922;45.572;10.002;2023-02-22T00:30:39;13.50;1.00
21522;DHT22;10922;45.572;10.002;2023-02-22T00:33:08;13.50;99.90
21522;DHT22;10922;45.572;10.002;2023-02-22T00:35:34;13.50;99.90
21522;DHT22;10922;45.572;10.002;2023-02-22T00:38:01;13.70;1.00
21522;DHT22;10922;45.572;10.002;2023-02-22T00:40:32;13.60;1.00
21522;DHT22;10922;45.572;10.002;2023-02-22T00:43:00;13.80;99.90
21522;DHT22;10922;45.572;10.002;2023-02-22T00:45:27;13.60;99.90
21522;DHT22;10922;45.572;10.002;2023-02-22T00:47:53;13.80;99.90
21522;DHT22;10922;45.572;10.002;2023-02-22T00:50:20;13.60;99.90
21522;DHT22;10922;45.572;10.002;2023-02-22T00:52:46;13.90;1.00
21522;DHT22;10922;45.572;10.002;2023-02-22T00:55:22;13.90;99.90
21522;DHT22;10922;45.572;10.002;2023-02-22T00:57:48;13.70;99.90
21522;DHT22;10922;45.572;10.002;2023-02-22T01:00:20;13.70;99.90
21522;DHT22;10922;45.572;10.002;2023-02-22T01:02:46;13.70;99.90
21522;DHT22;10922;45.572;10.002;2023-02-22T01:05:17;13.60;1.00
21522;DHT22;10922;45.572;10.002;2023-02-22T01:07:43;13.60;1.00
21522;DHT22;10922;45.572;10.002;2023-02-22T01:10:09;13.70;99.90
21522;DHT22;10922;45.572;10.002;2023-02-22T01:12:36;13.50;1.00
21522;DHT22;10922;45.572;10.002;2023-02-22T01:15:03;13.70;99.90
21522;DHT22;10922;45.572;10.002;2023-02-22T01:17:28;13.70;1.00
21522;DHT22;10922;45.572;10.002;2023-02-22T01:19:55;13.50;99.90
21522;DHT22;10922;45.572;10.002;2023-02-22T01:22:21;13.60;99.90
21522;DHT22;10922;45.572;10.002;2023-02-22T01:24:48;13.70;99.90
21522;DHT22;10922;45.572;10.002;2023-02-22T01:27:14;13.50;1.00
21522;DHT22;10922;45.572;10.002;2023-02-22T01:29:39;13.60;99.90
21522;DHT22;10922;45.572;10.002;2023-02-22T01:32:07;13.70;1.00
21522;DHT22;10922;45.572;10.002;2023-02-22T01:34:33;13.80;99.90
21522;DHT22;10922;45.572;10.002;2023-02-22T01:37:00;13.80;99.90
21522;DHT22;10922;45.572;10.002;2023-02-22T01:39:26;13.80;99.90
21522;DHT22;10922;45.572;10.002;2023-02-22T01:41:52;13.70;1.00
21522;DHT22;10922;45.572;10.002;2023-02-22T01:46:57;13.60;1.00
21522;DHT22;10922;45.572;10.002;2023-02-22T01:49:30;13.80;1.00
21522;DHT22;10922;45.572;10.002;2023-02-22T01:51:59;13.70;99.90
21522;DHT22;10922;45.572;10.002;2023-02-22T01:54:32;13.70;1.00
21522;DHT22;10922;45.572;10.002;2023-02-22T01:59:34;13.50;99.90
21522;DHT22;10922;45.572;10.002;2023-02-22T02:02:01;13.60;99.90
21522;DHT22;10922;45.572;10.002;2023-02-22T02:04:30;13.60;1.00
21522;DHT22;10922;45.572;10.002;2023-02-22T02:07:00;13.50;1.00
21522;DHT22;10922;45.572;10.002;2023-02-22T02:12:39;13.50;1.00
21522;DHT22;10922;45.572;10.002;2023-02-22T02:15:28;13.20;99.90
21522;DHT22;10922;45.572;10.002;2023-02-22T02:17:55;13.30;1.00
21522;DHT22;10922;45.572;10.002;2023-02-22T02:34:25;13.50;99.90
21522;DHT22;10922;45.572;10.002;2023-02-22T02:45:32;13.40;99.90
21522;DHT22;10922;45.572;10.002;2023-02-22T02:48:00;13.20;1.00
21522;DHT22;10922;45.572;10.002;2023-02-22T02:50:45;13.40;1.00
21522;DHT22;10922;45.572;10.002;2023-02-22T02:53:13;13.50;1.00
21522;DHT22;10922;45.572;10.002;2023-02-22T02:55:41;13.40;99.90
21522;DHT22;10922;45.572;10.002;2023-02-22T02:58:08;13.20;99.90
21522;DHT22;10922;45.572;10.002;2023-02-22T03:00:38;13.30;99.90
21522;DHT22;10922;45.572;10.002;2023-02-22T03:06:06;13.30;1.00
21522;DHT22;10922;45.572;10.002;2023-02-22T03:11:15;13.40;1.00
21522;DHT22;10922;45.572;10.002;2023-02-22T03:14:01;13.30;99.90
21522;DHT22;10922;45.572;10.002;2023-02-22T03:22:14;13.40;99.90
21522;DHT22;10922;45.572;10.002;2023-02-22T03:24:50;13.40;1.00
21522;DHT22;10922;45.572;10.002;2023-02-22T03:27:26;13.40;99.90
21522;DHT22;10922;45.572;10.002;2023-02-22T03:29:55;13.50;99.90
21522;DHT22;10922;45.572;10.002;2023-02-22T03:32:28;13.50;99.90
21522;DHT22;10922;45.572;10.002;2023-02-22T03:35:02;13.20;99.90
21522;DHT22;10922;45.572;10.002;2023-02-22T03:37:37;13.40;99.90
21522;DHT22;10922;45.572;10.002;2023-02-22T03:40:06;13.10;99.90
21522;DHT22;10922;45.572;10.002;2023-02-22T03:42:44;13.10;99.90
21522;DHT22;10922;45.572;10.002;2023-02-22T03:45:14;12.90;99.90
21522;DHT22;10922;45.572;10.002;2023-02-22T03:47:46;12.80;99.90
21522;DHT22;10922;45.572;10.002;2023-02-22T03:50:20;12.80;99.90
21522;DHT22;10922;45.572;10.002;2023-02-22T03:52:47;12.80;1.00
21522;DHT22;10922;45.572;10.002;2023-02-22T03:55:13;12.90;1.00
21522;DHT22;10922;45.572;10.002;2023-02-22T03:57:45;12.80;99.90
21522;DHT22;10922;45.572;10.002;2023-02-22T04:00:16;12.80;1.00
21522;DHT22;10922;45.572;10.002;2023-02-22T04:02:43;12.90;1.00
21522;DHT22;10922;45.572;10.002;2023-02-22T04:05:09;12.80;1.00
21522;DHT22;10922;45.572;10.002;2023-02-22T04:07:35;12.90;1.00
21522;DHT22;10922;45.572;10.002;2023-02-22T04:10:01;12.90;1.00
21522;DHT22;10922;45.572;10.002;2023-02-22T04:12:28;12.90;1.00
21522;DHT22;10922;45.572;10.002;2023-02-22T04:14:53;13.10;1.00
21522;DHT22;10922;45.572;10.002;2023-02-22T04:17:19;13.10;1.00
21522;DHT22;10922;45.572;10.002;2023-02-22T04:19:44;13.00;1.00
21522;DHT22;10922;45.572;10.002;2023-02-22T04:22:10;12.90;1.00
21522;DHT22;10922;45.572;10.002;2023-02-22T04:24:36;12.90;1.00
21522;DHT22;10922;45.572;10.002;2023-02-22T04:27:02;13.00;1.00
21522;DHT22;10922;45.572;10.002;2023-02-22T04:29:28;12.80;1.00
21522;DHT22;10922;45.572;10.002;2023-02-22T04:31:54;13.00;1.00
21522;DHT22;10922;45.572;10.002;2023-02-22T04:34:20;13.00;1.00
21522;DHT22;10922;45.572;10.002;2023-02-22T04:36:46;13.10;1.00
21522;DHT22;10922;45.572;10.002;2023-02-22T04:39:12;13.10;1.00
21522;DHT22;10922;45.572;10.002;2023-02-22T04:41:37;12.90;1.00
21522;DHT22;10922;45.572;10.002;2023-02-22T04:44:03;13.00;1.00
21522;DHT22;10922;45.572;10.002;2023-02-22T04:46:29;13.00;1.00
21522;DHT22;10922;45.572;10.002;2023-02-22T04:48:56;12.90;1.00
21522;DHT22;10922;45.572;10.002;2023-02-22T04:51:22;13.10;1.00
21522;DHT22;10922;45.572;10.002;2023-02-22T04:53:48;13.10;1.00
21522;DHT22;10922;45.572;10.002;2023-02-22T04:56:17;13.00;1.00
21522;DHT22;10922;45.572;10.002;2023-02-22T04:58:43;13.10;1.00
21522;DHT22;10922;45.572;10.002;2023-02-22T05:01:08;13.10;1.00
21522;DHT22;10922;45.572;10.002;2023-02-22T05:03:36;13.00;1.00
21522;DHT22;10922;45.572;10.002;2023-02-22T05:06:02;13.20;1.00
21522;DHT22;10922;45.572;10.002;2023-02-22T05:08:28;13.20;1.00
21522;DHT22;10922;45.572;10.002;2023-02-22T05:10:54;13.30;99.90
21522;DHT22;10922;45.572;10.002;2023-02-22T05:13:19;13.20;1.00
21522;DHT22;10922;45.572;10.002;2023-02-22T05:15:45;13.00;1.00
21522;DHT22;10922;45.572;10.002;2023-02-22T05:18:12;13.20;99.90
21522;DHT22;10922;45.572;10.002;2023-02-22T05:20:41;13.30;99.90
21522;DHT22;10922;45.572;10.002;2023-02-22T05:23:07;13.20;99.90
21522;DHT22;10922;45.572;10.002;2023-02-22T05:25:33;13.20;99.90
21522;DHT22;10922;45.572;10.002;2023-02-22T05:28:09;13.20;99.90
21522;DHT22;10922;45.572;10.002;2023-02-22T05:30:35;13.10;99.90
21522;DHT22;10922;45.572;10.002;2023-02-22T05:33:04;13.30;99.90
21522;DHT22;10922;45.572;10.002;2023-02-22T05:35:29;13.20;99.90
21522;DHT22;10922;45.572;10.002;2023-02-22T05:37:55;13.30;99.90
21522;DHT22;10922;45.572;10.002;2023-02-22T05:40:23;13.30;99.90
21522;DHT22;10922;45.572;10.002;2023-02-22T05:42:51;13.30;99.90
21522;DHT22;10922;45.572;10.002;2023-02-22T05:45:19;13.40;99.90
21522;DHT22;10922;45.572;10.002;2023-02-22T05:47:45;13.40;99.90
21522;DHT22;10922;45.572;10.002;2023-02-22T05:50:11;13.30;99.90
21522;DHT22;10922;45.572;10.002;2023-02-22T05:52:37;13.40;99.90
21522;DHT22;10922;45.572;10.002;2023-02-22T05:55:06;13.30;99.90
21522;DHT22;10922;45.572;10.002;2023-02-22T05:57:32;13.20;99.90
21522;DHT22;10922;45.572;10.002;2023-02-22T05:59:58;13.30;99.90
21522;DHT22;10922;45.572;10.002;2023-02-22T06:02:24;13.30;99.90
21522;DHT22;10922;45.572;10.002;2023-02-22T06:04:50;13.30;99.90
21522;DHT22;10922;45.572;10.002;2023-02-22T06:07:15;13.20;99.90
21522;DHT22;10922;45.572;10.002;2023-02-22T06:09:41;13.30;99.90
21522;DHT22;10922;45.572;10.002;2023-02-22T06:12:07;13.10;99.90
21522;DHT22;10922;45.572;10.002;2023-02-22T06:14:33;13.30;99.90
21522;DHT22;10922;45.572;10.002;2023-02-22T06:16:59;13.30;99.90
21522;DHT22;10922;45.572;10.002;2023-02-22T06:19:25;13.30;99.90
21522;DHT22;10922;45.572;10.002;2023-02-22T06:21:55;13.20;99.90
21522;DHT22;10922;45.572;10.002;2023-02-22T06:24:21;13.20;99.90
21522;DHT22;10922;45.572;10.002;2023-02-22T06:26:58;13.00;99.90
21522;DHT22;10922;45.572;10.002;2023-02-22T06:29:25;13.20;99.90
21522;DHT22;10922;45.572;10.002;2023-02-22T06:31:50;13.20;99.90
21522;DHT22;10922;45.572;10.002;2023-02-22T06:34:18;13.20;99.90
21522;DHT22;10922;45.572;10.002;2023-02-22T06:36:44;13.40;99.90
21522;DHT22;10922;45.572;10.002;2023-02-22T06:39:13;13.30;99.90
21522;DHT22;10922;45.572;10.002;2023-02-22T06:41:40;13.10;99.90
21522;DHT22;10922;45.572;10.002;2023-02-22T06:44:07;13.10;99.90
21522;DHT22;10922;45.572;10.002;2023-02-22T06:46:33;13.20;99.90
21522;DHT22;10922;45.572;10.002;2023-02-22T06:48:59;13.20;99.90
21522;DHT22;10922;45.572;10.002;2023-02-22T06:51:28;13.10;99.90
21522;DHT22;10922;45.572;10.002;2023-02-22T06:53:54;13.30;99.90
21522;DHT22;10922;45.572;10.002;2023-02-22T06:56:20;13.20;99.90
21522;DHT22;10922;45.572;10.002;2023-02-22T06:58:46;13.20;99.90
21522;DHT22;10922;45.572;10.002;2023-02-22T07:01:12;13.00;99.90
21522;DHT22;10922;45.572;10.002;2023-02-22T07:03:37;13.20;99.90
21522;DHT22;10922;45.572;10.002;2023-02-22T07:06:05;13.20;99.90
21522;DHT22;10922;45.572;10.002;2023-02-22T07:08:30;13.30;99.90
21522;DHT22;10922;45.572;10.002;2023-02-22T07:10:56;13.30;99.90
21522;DHT22;10922;45.572;10.002;2023-02-22T07:13:22;13.30;99.90
21522;DHT22;10922;45.572;10.002;2023-02-22T07:15:47;13.40;99.90
21522;DHT22;10922;45.572;10.002;2023-02-22T07:18:13;13.40;99.90
21522;DHT22;10922;45.572;10.002;2023-02-22T07:20:40;13.30;99.90
21522;DHT22;10922;45.572;10.002;2023-02-22T07:23:06;13.40;99.90
21522;DHT22;10922;45.572;10.002;2023-02-22T07:25:32;13.30;99.90
21522;DHT22;10922;45.572;10.002;2023-02-22T07:27:58;13.40;99.90
21522;DHT22;10922;45.572;10.002;2023-02-22T07:30:28;13.00;99.90
21522;DHT22;10922;45.572;10.002;2023-02-22T07:32:58;13.20;99.90
21522;DHT22;10922;45.572;10.002;2023-02-22T07:35:25;13.10;99.90
21522;DHT22;10922;45.572;10.002;2023-02-22T07:37:51;13.10;99.90
21522;DHT22;10922;45.572;10.002;2023-02-22T07:40:18;13.20;99.90
21522;DHT22;10922;45.572;10.002;2023-02-22T07:45:23;13.30;99.90
21522;DHT22;10922;45.572;10.002;2023-02-22T07:47:49;13.30;99.90
21522;DHT22;10922;45.572;10.002;2023-02-22T07:50:15;13.30;99.90
21522;DHT22;10922;45.572;10.002;2023-02-22T07:52:49;13.30;99.90
21522;DHT22;10922;45.572;10.002;2023-02-22T07:55:16;13.20;99.90
21522;DHT22;10922;45.572;10.002;2023-02-22T07:57:45;13.40;99.90
21522;DHT22;10922;45.572;10.002;2023-02-22T08:00:11;13.40;99.90
21522;DHT22;10922;45.572;10.002;2023-02-22T08:02:39;13.40;99.90
21522;DHT22;10922;45.572;10.002;2023-02-22T08:05:06;13.40;99.90
21522;DHT22;10922;45.572;10.002;2023-02-22T08:07:32;13.20;99.90
21522;DHT22;10922;45.572;10.002;2023-02-22T08:09:58;13.40;99.90
21522;DHT22;10922;45.572;10.002;2023-02-22T08:12:24;13.20;99.90
21522;DHT22;10922;45.572;10.002;2023-02-22T08:14:49;13.40;99.90
21522;DHT22;10922;45.572;10.002;2023-02-22T08:17:15;13.40;99.90
21522;DHT22;10922;45.572;10.002;2023-02-22T08:19:41;13.40;99.90
21522;DHT22;10922;45.572;10.002;2023-02-22T08:22:06;13.30;99.90
21522;DHT22;10922;45.572;10.002;2023-02-22T08:24:32;13.50;99.90
21522;DHT22;10922;45.572;10.002;2023-02-22T08:26:57;13.60;99.90
21522;DHT22;10922;45.572;10.002;2023-02-22T08:29:23;13.70;99.90
21522;DHT22;10922;45.572;10.002;2023-02-22T08:31:52;13.60;99.90
21522;DHT22;10922;45.572;10.002;2023-02-22T08:34:18;13.60;99.90
21522;DHT22;10922;45.572;10.002;2023-02-22T08:36:44;13.60;99.90
21522;DHT22;10922;45.572;10.002;2023-02-22T08:39:10;13.70;99.90
21522;DHT22;10922;45.572;10.002;2023-02-22T08:41:36;13.90;99.90
21522;DHT22;10922;45.572;10.002;2023-02-22T08:44:01;13.70;99.90
21522;DHT22;10922;45.572;10.002;2023-02-22T08:46:27;13.80;99.90
21522;DHT22;10922;45.572;10.002;2023-02-22T08:48:53;13.50;99.90
21522;DHT22;10922;45.572;10.002;2023-02-22T08:51:19;13.60;99.90
21522;DHT22;10922;45.572;10.002;2023-02-22T08:53:45;13.70;99.90
21522;DHT22;10922;45.572;10.002;2023-02-22T08:56:11;13.70;99.90
21522;DHT22;10922;45.572;10.002;2023-02-22T08:58:36;13.80;99.90
21522;DHT22;10922;45.572;10.002;2023-02-22T09:01:02;13.80;99.90
21522;DHT22;10922;45.572;10.002;2023-02-22T09:03:28;13.90;99.90
21522;DHT22;10922;45.572;10.002;2023-02-22T09:05:54;13.80;99.90
21522;DHT22;10922;45.572;10.002;2023-02-22T09:08:20;13.90;99.90
21522;DHT22;10922;45.572;10.002;2023-02-22T09:10:45;14.00;99.90
21522;DHT22;10922;45.572;10.002;2023-02-22T09:13:11;14.00;99.90
21522;DHT22;10922;45.572;10.002;2023-02-22T09:15:38;13.80;99.90
21522;DHT22;10922;45.572;10.002;2023-02-22T09:18:05;14.00;99.90
21522;DHT22;10922;45.572;10.002;2023-02-22T09:20:33;14.10;99.90
21522;DHT22;10922;45.572;10.002;2023-02-22T09:23:00;13.90;99.90
21522;DHT22;10922;45.572;10.002;2023-02-22T09:25:28;13.90;99.90
21522;DHT22;10922;45.572;10.002;2023-02-22T09:27:54;13.90;99.90
21522;DHT22;10922;45.572;10.002;2023-02-22T09:30:26;13.90;99.90
21522;DHT22;10922;45.572;10.002;2023-02-22T09:32:55;14.20;99.90
21522;DHT22;10922;45.572;10.002;2023-02-22T09:35:22;14.30;99.90
21522;DHT22;10922;45.572;10.002;2023-02-22T09:37:58;14.10;99.90
21522;DHT22;10922;45.572;10.002;2023-02-22T09:40:30;13.80;99.90
21522;DHT22;10922;45.572;10.002;2023-02-22T09:51:19;14.30;99.90
21522;DHT22;10922;45.572;10.002;2023-02-22T09:53:47;14.20;99.90
21522;DHT22;10922;45.572;10.002;2023-02-22T09:56:16;14.40;99.90
21522;DHT22;10922;45.572;10.002;2023-02-22T09:58:48;14.60;99.90
21522;DHT22;10922;45.572;10.002;2023-02-22T10:01:32;14.40;99.90
21522;DHT22;10922;45.572;10.002;2023-02-22T10:04:43;14.40;99.90
21522;DHT22;10922;45.572;10.002;2023-02-22T10:07:29;14.60;99.90
21522;DHT22;10922;45.572;10.002;2023-02-22T10:09:57;14.00;99.90
21522;DHT22;10922;45.572;10.002;2023-02-22T10:15:36;14.50;99.90
21522;DHT22;10922;45.572;10.002;2023-02-22T10:20:56;14.60;99.90
21522;DHT22;10922;45.572;10.002;2023-02-22T10:23:37;14.70;99.90
21522;DHT22;10922;45.572;10.002;2023-02-22T10:26:24;14.50;99.90
21522;DHT22;10922;45.572;10.002;2023-02-22T10:31:29;14.80;99.90
21522;DHT22;10922;45.572;10.002;2023-02-22T10:34:13;15.10;99.90
21522;DHT22;10922;45.572;10.002;2023-02-22T10:36:42;14.70;1.00
21522;DHT22;10922;45.572;10.002;2023-02-22T10:39:32;14.80;99.90
21522;DHT22;10922;45.572;10.002;2023-02-22T10:42:02;15.20;99.90
21522;DHT22;10922;45.572;10.002;2023-02-22T10:44:34;15.30;99.90
21522;DHT22;10922;45.572;10.002;2023-02-22T10:47:01;15.40;99.90
21522;DHT22;10922;45.572;10.002;2023-02-22T10:49:35;15.20;99.90
21522;DHT22;10922;45.572;10.002;2023-02-22T10:52:16;14.90;99.90
21522;DHT22;10922;45.572;10.002;2023-02-22T10:54:45;15.10;99.90
21522;DHT22;10922;45.572;10.002;2023-02-22T10:57:12;15.20;99.90
21522;DHT22;10922;45.572;10.002;2023-02-22T10:59:40;15.20;99.90
21522;DHT22;10922;45.572;10.002;2023-02-22T11:02:28;15.20;99.90
21522;DHT22;10922;45.572;10.002;2023-02-22T11:04:57;14.90;99.90
21522;DHT22;10922;45.572;10.002;2023-02-22T11:07:31;14.80;99.90
21522;DHT22;10922;45.572;10.002;2023-02-22T11:10:05;14.90;99.90
21522;DHT22;10922;45.572;10.002;2023-02-22T11:12:35;15.10;99.90
21522;DHT22;10922;45.572;10.002;2023-02-22T11:17:45;14.60;99.90
21522;DHT22;10922;45.572;10.002;2023-02-22T11:20:26;14.70;99.90
21522;DHT22;10922;45.572;10.002;2023-02-22T11:22:57;15.00;99.90
21522;DHT22;10922;45.572;10.002;2023-02-22T11:25:36;15.10;99.90
21522;DHT22;10922;45.572;10.002;2023-02-22T11:28:15;15.00;99.90
21522;DHT22;10922;45.572;10.002;2023-02-22T11:30:42;14.80;99.90
21522;DHT22;10922;45.572;10.002;2023-02-22T11:33:17;14.70;99.90
21522;DHT22;10922;45.572;10.002;2023-02-22T11:35:55;14.60;99.90
21522;DHT22;10922;45.572;10.002;2023-02-22T11:38:23;14.80;99.90
21522;DHT22;10922;45.572;10.002;2023-02-22T11:43:46;15.20;99.90
21522;DHT22;10922;45.572;10.002;2023-02-22T11:48:41;15.50;99.90
21522;DHT22;10922;45.572;10.002;2023-02-22T11:54:30;14.90;99.90
21522;DHT22;10922;45.572;10.002;2023-02-22T12:05:42;15.20;99.90
21522;DHT22;10922;45.572;10.002;2023-02-22T12:08:19;15.50;99.90
21522;DHT22;10922;45.572;10.002;2023-02-22T12:14:11;15.80;99.90
21522;DHT22;10922;45.572;10.002;2023-02-22T12:17:21;16.20;99.90
21522;DHT22;10922;45.572;10.002;2023-02-22T12:19:53;15.70;99.90
21522;DHT22;10922;45.572;10.002;2023-02-22T12:22:33;15.80;99.90
21522;DHT22;10922;45.572;10.002;2023-02-22T12:25:06;15.90;99.90
21522;DHT22;10922;45.572;10.002;2023-02-22T12:27:43;16.00;99.90
21522;DHT22;10922;45.572;10.002;2023-02-22T12:30:33;16.30;99.90
21522;DHT22;10922;45.572;10.002;2023-02-22T12:33:24;16.80;99.90
21522;DHT22;10922;45.572;10.002;2023-02-22T12:35:54;16.40;99.90
21522;DHT22;10922;45.572;10.002;2023-02-22T12:48:48;18.10;99.90
21522;DHT22;10922;45.572;10.002;2023-02-22T12:51:42;18.40;99.90
21522;DHT22;10922;45.572;10.002;2023-02-22T12:59:21;16.80;99.90
21522;DHT22;10922;45.572;10.002;2023-02-22T13:01:57;16.40;1.00
21522;DHT22;10922;45.572;10.002;2023-02-22T13:04:24;17.10;99.90
21522;DHT22;10922;45.572;10.002;2023-02-22T13:09:52;17.20;99.90
21522;DHT22;10922;45.572;10.002;2023-02-22T13:12:51;16.20;99.90
21522;DHT22;10922;45.572;10.002;2023-02-22T13:15:29;15.70;99.90
21522;DHT22;10922;45.572;10.002;2023-02-22T13:25:47;15.80;99.90
21522;DHT22;10922;45.572;10.002;2023-02-22T13:28:34;15.70;99.90
21522;DHT22;10922;45.572;10.002;2023-02-22T13:48:11;15.20;99.90
21522;DHT22;10922;45.572;10.002;2023-02-22T13:51:04;15.20;99.90
21522;DHT22;10922;45.572;10.002;2023-02-22T13:53:53;15.40;99.90
21522;DHT22;10922;45.572;10.002;2023-02-22T13:56:22;15.50;99.90
21522;DHT22;10922;45.572;10.002;2023-02-22T13:58:57;15.70;99.90
21522;DHT22;10922;45.572;10.002;2023-02-22T14:01:45;15.80;99.90
21522;DHT22;10922;45.572;10.002;2023-02-22T14:06:50;15.20;99.90
21522;DHT22;10922;45.572;10.002;2023-02-22T14:09:46;15.10;99.90
21522;DHT22;10922;45.572;10.002;2023-02-22T14:17:45;15.50;99.90
21522;DHT22;10922;45.572;10.002;2023-02-22T14:22:41;15.20;99.90
21522;DHT22;10922;45.572;10.002;2023-02-22T14:25:30;15.20;99.90
21522;DHT22;10922;45.572;10.002;2023-02-22T14:27:58;14.70;99.90
21522;DHT22;10922;45.572;10.002;2023-02-22T14:30:26;15.10;99.90
21522;DHT22;10922;45.572;10.002;2023-02-22T14:32:53;15.30;99.90
21522;DHT22;10922;45.572;10.002;2023-02-22T14:35:19;15.50;99.90
21522;DHT22;10922;45.572;10.002;2023-02-22T14:37:55;15.20;99.90
21522;DHT22;10922;45.572;10.002;2023-02-22T14:40:28;15.30;99.90
21522;DHT22;10922;45.572;10.002;2023-02-22T14:45:36;15.50;99.90
21522;DHT22;10922;45.572;10.002;2023-02-22T14:48:33;15.60;99.90
21522;DHT22;10922;45.572;10.002;2023-02-22T14:51:28;15.40;99.90
21522;DHT22;10922;45.572;10.002;2023-02-22T14:54:08;15.50;99.90
21522;DHT22;10922;45.572;10.002;2023-02-22T14:56:52;15.60;99.90
21522;DHT22;10922;45.572;10.002;2023-02-22T14:59:24;15.50;99.90
21522;DHT22;10922;45.572;10.002;2023-02-22T15:02:04;15.40;99.90
21522;DHT22;10922;45.572;10.002;2023-02-22T15:04:30;15.50;99.90
21522;DHT22;10922;45.572;10.002;2023-02-22T15:06:58;15.20;99.90
21522;DHT22;10922;45.572;10.002;2023-02-22T15:09:27;15.30;99.90
21522;DHT22;10922;45.572;10.002;2023-02-22T15:14:24;15.50;99.90
21522;DHT22;10922;45.572;10.002;2023-02-22T15:16:56;15.40;99.90
21522;DHT22;10922;45.572;10.002;2023-02-22T15:19:34;15.30;99.90
21522;DHT22;10922;45.572;10.002;2023-02-22T15:22:02;15.70;99.90
21522;DHT22;10922;45.572;10.002;2023-02-22T15:24:30;15.50;99.90
21522;DHT22;10922;45.572;10.002;2023-02-22T15:27:13;15.50;99.90
21522;DHT22;10922;45.572;10.002;2023-02-22T15:29:41;15.20;99.90
21522;DHT22;10922;45.572;10.002;2023-02-22T15:32:30;15.30;99.90
21522;DHT22;10922;45.572;10.002;2023-02-22T15:35:24;15.40;99.90
21522;DHT22;10922;45.572;10.002;2023-02-22T15:38:02;15.40;99.90
21522;DHT22;10922;45.572;10.002;2023-02-22T15:40:28;15.50;99.90
21522;DHT22;10922;45.572;10.002;2023-02-22T15:43:20;15.60;99.90
21522;DHT22;10922;45.572;10.002;2023-02-22T15:45:50;15.80;99.90
21522;DHT22;10922;45.572;10.002;2023-02-22T15:48:16;15.60;99.90
21522;DHT22;10922;45.572;10.002;2023-02-22T15:56:16;15.40;99.90
21522;DHT22;10922;45.572;10.002;2023-02-22T15:58:44;15.20;99.90
21522;DHT22;10922;45.572;10.002;2023-02-22T16:01:13;15.20;99.90
21522;DHT22;10922;45.572;10.002;2023-02-22T16:03:41;15.50;99.90
21522;DHT22;10922;45.572;10.002;2023-02-22T16:08:50;15.10;99.90
21522;DHT22;10922;45.572;10.002;2023-02-22T16:11:29;15.10;99.90
21522;DHT22;10922;45.572;10.002;2023-02-22T16:13:59;15.20;99.90
21522;DHT22;10922;45.572;10.002;2023-02-22T16:16:44;15.20;99.90
21522;DHT22;10922;45.572;10.002;2023-02-22T16:19:42;15.40;99.90
21522;DHT22;10922;45.572;10.002;2023-02-22T16:22:30;15.00;99.90
21522;DHT22;10922;45.572;10.002;2023-02-22T16:27:48;15.00;99.90
21522;DHT22;10922;45.572;10.002;2023-02-22T16:32:49;14.80;99.90
21522;DHT22;10922;45.572;10.002;2023-02-22T16:35:16;14.60;99.90
21522;DHT22;10922;45.572;10.002;2023-02-22T16:42:51;14.30;99.90
21522;DHT22;10922;45.572;10.002;2023-02-22T16:45:18;14.50;99.90
21522;DHT22;10922;45.572;10.002;2023-02-22T16:47:44;14.20;99.90
21522;DHT22;10922;45.572;10.002;2023-02-22T16:50:13;14.10;99.90
21522;DHT22;10922;45.572;10.002;2023-02-22T16:52:41;14.60;99.90
21522;DHT22;10922;45.572;10.002;2023-02-22T16:55:11;14.20;99.90
21522;DHT22;10922;45.572;10.002;2023-02-22T16:57:38;14.30;99.90
21522;DHT22;10922;45.572;10.002;2023-02-22T17:00:12;14.30;99.90
21522;DHT22;10922;45.572;10.002;2023-02-22T17:02:39;14.30;99.90
21522;DHT22;10922;45.572;10.002;2023-02-22T17:05:05;14.30;99.90
21522;DHT22;10922;45.572;10.002;2023-02-22T17:07:32;14.20;99.90
21522;DHT22;10922;45.572;10.002;2023-02-22T17:09:58;13.40;99.90
21522;DHT22;10922;45.572;10.002;2023-02-22T17:12:31;13.20;99.90
21522;DHT22;10922;45.572;10.002;2023-02-22T17:14:57;13.10;99.90
21522;DHT22;10922;45.572;10.002;2023-02-22T17:17:23;13.00;99.90
21522;DHT22;10922;45.572;10.002;2023-02-22T17:19:51;12.90;99.90
21522;DHT22;10922;45.572;10.002;2023-02-22T17:22:21;13.20;99.90
21522;DHT22;10922;45.572;10.002;2023-02-22T17:24:47;12.90;99.90
21522;DHT22;10922;45.572;10.002;2023-02-22T17:27:13;12.80;1.00
21522;DHT22;10922;45.572;10.002;2023-02-22T17:29:39;12.70;1.00
21522;DHT22;10922;45.572;10.002;2023-02-22T17:32:09;12.70;1.00
21522;DHT22;10922;45.572;10.002;2023-02-22T17:34:35;13.10;1.00
21522;DHT22;10922;45.572;10.002;2023-02-22T17:37:01;13.10;1.00
21522;DHT22;10922;45.572;10.002;2023-02-22T17:39:26;13.10;1.00
21522;DHT22;10922;45.572;10.002;2023-02-22T17:41:52;13.00;1.00
21522;DHT22;10922;45.572;10.002;2023-02-22T17:44:23;13.20;1.00
21522;DHT22;10922;45.572;10.002;2023-02-22T17:46:49;13.10;1.00
21522;DHT22;10922;45.572;10.002;2023-02-22T17:49:14;13.10;1.00
21522;DHT22;10922;45.572;10.002;2023-02-22T17:51:40;13.20;1.00
21522;DHT22;10922;45.572;10.002;2023-02-22T17:54:06;13.30;1.00
21522;DHT22;10922;45.572;10.002;2023-02-22T17:56:31;13.30;1.00
21522;DHT22;10922;45.572;10.002;2023-02-22T17:58:57;13.30;1.00
21522;DHT22;10922;45.572;10.002;2023-02-22T18:01:31;13.40;1.00
21522;DHT22;10922;45.572;10.002;2023-02-22T18:04:01;13.40;1.00
21522;DHT22;10922;45.572;10.002;2023-02-22T18:06:28;13.40;1.00
21522;DHT22;10922;45.572;10.002;2023-02-22T18:08:56;13.20;1.00
21522;DHT22;10922;45.572;10.002;2023-02-22T18:11:23;13.00;1.00
21522;DHT22;10922;45.572;10.002;2023-02-22T18:13:52;12.90;1.00
21522;DHT22;10922;45.572;10.002;2023-02-22T18:16:18;12.90;1.00
21522;DHT22;10922;45.572;10.002;2023-02-22T18:18:43;12.50;1.00
21522;DHT22;10922;45.572;10.002;2023-02-22T18:21:09;12.80;1.00